createdAt,value
2023-02-27T00:00:21.010Z,0.00
2023-02-27T00:01:20.549Z,0.00
2023-02-27T00:02:20.552Z,0.00
2023-02-27T00:03:20.493Z,0.00
2023-02-27T00:04:20.491Z,0.00
2023-02-27T00:05:20.490Z,0.00
2023-02-27T00:06:20.472Z,0.00
2023-02-27T00:07:20.448Z,0.00
2023-02-27T00:08:20.423Z,0.00
2023-02-27T00:09:20.482Z,0.00
2023-02-27T00:10:20.400Z,0.00
2023-02-27T00:11:20.422Z,0.00
2023-02-27T00:12:20.396Z,0.00
2023-02-27T00:13:20.398Z,0.00
2023-02-27T00:14:20.912Z,0.00
2023-02-27T00:15:20.825Z,0.00
2023-02-27T00:16:20.370Z,0.00
2023-02-27T00:17:20.348Z,0.00
2023-02-27T00:18:20.301Z,0.00
2023-02-27T00:19:20.361Z,0.00
2023-02-27T00:20:20.305Z,0.00
2023-02-27T00:21:20.298Z,0.00
2023-02-27T00:22:20.260Z,0.00
2023-02-27T00:23:20.324Z,0.00
2023-02-27T00:24:20.249Z,0.00
2023-02-27T00:25:20.315Z,0.00
2023-02-27T00:26:20.239Z,0.00
2023-02-27T00:27:20.232Z,0.00
2023-02-27T00:28:20.228Z,0.00
2023-02-27T00:29:20.222Z,0.00
2023-02-27T00:30:20.187Z,0.00
2023-02-27T00:31:20.742Z,0.00
2023-02-27T00:32:20.213Z,0.00
2023-02-27T00:33:20.155Z,0.00
2023-02-27T00:34:20.137Z,0.00
2023-02-27T00:35:20.246Z,0.00
2023-02-27T00:36:20.130Z,0.00
2023-02-27T00:37:20.246Z,0.00
2023-02-27T00:38:20.112Z,0.00
2023-02-27T00:39:20.118Z,0.00
2023-02-27T00:40:20.075Z,0.00
2023-02-27T00:41:20.086Z,0.00
2023-02-27T00:42:20.054Z,0.00
2023-02-27T00:43:20.199Z,0.00
2023-02-27T00:44:20.038Z,0.00
2023-02-27T00:45:20.040Z,0.00
2023-02-27T00:46:20.106Z,0.00
2023-02-27T00:47:20.025Z,0.00
2023-02-27T00:48:20.000Z,0.00
2023-02-27T00:49:20.003Z,0.00
2023-02-27T00:50:19.972Z,0.00
2023-02-27T00:51:19.970Z,0.00
2023-02-27T00:52:19.954Z,0.00
2023-02-27T00:53:19.951Z,0.00
2023-02-27T00:54:19.923Z,0.00
2023-02-27T00:55:19.943Z,0.00
2023-02-27T00:56:19.914Z,0.00
2023-02-27T00:57:19.978Z,0.00
2023-02-27T00:58:19.858Z,0.00
2023-02-27T00:59:19.884Z,0.00
2023-02-27T01:00:19.933Z,0.00
2023-02-27T01:01:19.859Z,0.00
2023-02-27T01:02:19.844Z,0.00
2023-02-27T01:03:19.844Z,0.00
2023-02-27T01:04:19.840Z,0.00
2023-02-27T01:05:19.822Z,0.00
2023-02-27T01:06:19.789Z,0.00
2023-02-27T01:07:19.813Z,0.00
2023-02-27T01:08:19.751Z,0.00
2023-02-27T01:09:19.793Z,0.00
2023-02-27T01:10:19.745Z,0.00
2023-02-27T01:11:19.780Z,0.00
2023-02-27T01:12:19.721Z,0.00
2023-02-27T01:13:19.745Z,0.00
2023-02-27T01:14:19.714Z,0.00
2023-02-27T01:15:20.238Z,0.00
2023-02-27T01:16:19.732Z,0.00
2023-02-27T01:17:19.690Z,0.00
2023-02-27T01:18:19.755Z,0.00
2023-02-27T01:19:20.042Z,0.00
2023-02-27T01:20:19.634Z,0.00
2023-02-27T01:21:19.660Z,0.00
2023-02-27T01:22:19.737Z,0.00
2023-02-27T01:23:19.675Z,0.00
2023-02-27T01:24:19.595Z,0.00
2023-02-27T01:25:19.591Z,0.00
2023-02-27T01:26:19.592Z,0.00
2023-02-27T01:27:19.592Z,0.00
2023-02-27T01:28:19.552Z,0.00
2023-02-27T01:29:19.562Z,0.00
2023-02-27T01:30:19.543Z,0.00
2023-02-27T01:31:19.610Z,0.00
2023-02-27T01:32:19.665Z,0.00
2023-02-27T01:33:19.534Z,0.00
2023-02-27T01:34:19.486Z,0.00
2023-02-27T01:35:19.497Z,0.00
2023-02-27T01:36:19.459Z,0.00
2023-02-27T01:37:19.539Z,0.00
2023-02-27T01:38:19.430Z,0.00
2023-02-27T01:39:19.440Z,0.00
2023-02-27T01:40:19.415Z,0.00
2023-02-27T01:41:19.437Z,0.00
2023-02-27T01:42:19.377Z,0.00
2023-02-27T01:43:19.396Z,0.00
2023-02-27T01:44:19.367Z,0.00
2023-02-27T01:45:19.376Z,0.00
2023-02-27T01:46:19.347Z,0.00
2023-02-27T01:47:19.384Z,0.00
2023-02-27T01:48:19.339Z,0.00
2023-02-27T01:49:19.337Z,0.00
2023-02-27T01:50:19.309Z,0.00
2023-02-27T01:51:19.334Z,0.00
2023-02-27T01:52:19.286Z,0.00
2023-02-27T01:53:19.285Z,0.00
2023-02-27T01:54:19.267Z,0.00
2023-02-27T01:55:19.254Z,0.00
2023-02-27T01:56:19.225Z,0.00
2023-02-27T01:57:19.485Z,0.00
2023-02-27T01:58:19.212Z,0.00
2023-02-27T01:59:19.224Z,0.00
2023-02-27T02:00:19.584Z,0.00
2023-02-27T02:01:19.238Z,0.00
2023-02-27T02:02:19.230Z,0.00
2023-02-27T02:03:19.175Z,0.00
2023-02-27T02:04:19.145Z,0.00
2023-02-27T02:05:19.172Z,0.00
2023-02-27T02:06:19.129Z,0.00
2023-02-27T02:07:19.134Z,0.00
2023-02-27T02:08:19.134Z,0.00
2023-02-27T02:09:19.103Z,0.00
2023-02-27T02:10:19.094Z,0.00
2023-02-27T02:11:19.061Z,0.00
2023-02-27T02:12:19.095Z,0.00
2023-02-27T02:13:19.043Z,0.00
2023-02-27T02:14:19.064Z,0.00
2023-02-27T02:15:19.042Z,0.00
2023-02-27T02:16:19.050Z,0.00
2023-02-27T02:17:19.004Z,0.00
2023-02-27T02:18:19.003Z,0.00
2023-02-27T02:19:18.992Z,0.00
2023-02-27T02:20:18.993Z,0.00
2023-02-27T02:21:18.971Z,0.00
2023-02-27T02:22:18.958Z,0.00
2023-02-27T02:23:18.940Z,0.00
2023-02-27T02:24:18.963Z,0.00
2023-02-27T02:25:18.946Z,0.00
2023-02-27T02:26:18.956Z,0.00
2023-02-27T02:27:18.953Z,0.00
2023-02-27T02:28:18.909Z,0.00
2023-02-27T02:29:18.885Z,0.00
2023-02-27T02:30:18.887Z,0.00
2023-02-27T02:31:18.924Z,0.00
2023-02-27T02:32:18.907Z,0.00
2023-02-27T02:33:18.877Z,0.00
2023-02-27T02:34:18.828Z,0.00
2023-02-27T02:35:18.798Z,0.00
2023-02-27T02:36:18.818Z,0.00
2023-02-27T02:37:19.227Z,0.00
2023-02-27T02:38:19.255Z,0.00
2023-02-27T02:39:18.749Z,0.00
2023-02-27T02:40:18.787Z,0.00
2023-02-27T02:41:18.736Z,0.00
2023-02-27T02:42:18.746Z,0.00
2023-02-27T02:43:18.773Z,0.00
2023-02-27T02:44:18.735Z,0.00
2023-02-27T02:45:18.706Z,0.00
2023-02-27T02:46:18.765Z,0.00
2023-02-27T02:47:18.668Z,0.00
2023-02-27T02:48:18.683Z,0.00
2023-02-27T02:49:18.668Z,0.00
2023-02-27T02:50:18.665Z,0.00
2023-02-27T02:51:18.629Z,0.00
2023-02-27T02:52:18.671Z,0.00
2023-02-27T02:53:19.058Z,0.00
2023-02-27T02:54:18.636Z,0.00
2023-02-27T02:55:18.667Z,0.00
2023-02-27T02:56:18.607Z,0.00
2023-02-27T02:57:18.561Z,0.00
2023-02-27T02:58:19.101Z,0.00
2023-02-27T02:59:18.553Z,0.00
2023-02-27T03:00:18.789Z,0.00
2023-02-27T03:01:18.585Z,0.00
2023-02-27T03:02:18.532Z,0.00
2023-02-27T03:03:18.513Z,0.00
2023-02-27T03:04:18.525Z,0.00
2023-02-27T03:05:18.527Z,0.00
2023-02-27T03:06:18.512Z,0.00
2023-02-27T03:07:18.494Z,0.00
2023-02-27T03:08:18.465Z,0.00
2023-02-27T03:09:18.442Z,0.00
2023-02-27T03:10:18.441Z,0.00
2023-02-27T03:11:18.407Z,0.00
2023-02-27T03:12:18.422Z,0.00
2023-02-27T03:13:18.375Z,0.00
2023-02-27T03:14:18.390Z,0.00
2023-02-27T03:15:18.383Z,0.00
2023-02-27T03:16:18.392Z,0.00
2023-02-27T03:17:18.352Z,0.00
2023-02-27T03:18:18.392Z,0.00
2023-02-27T03:19:18.406Z,0.00
2023-02-27T03:20:18.337Z,0.00
2023-02-27T03:21:18.293Z,0.00
2023-02-27T03:22:18.316Z,0.00
2023-02-27T03:23:18.271Z,0.00
2023-02-27T03:24:18.286Z,0.00
2023-02-27T03:25:18.274Z,0.00
2023-02-27T03:26:18.330Z,0.00
2023-02-27T03:27:18.225Z,0.00
2023-02-27T03:28:18.246Z,0.00
2023-02-27T03:29:18.215Z,0.00
2023-02-27T03:30:18.245Z,0.00
2023-02-27T03:31:18.216Z,0.00
2023-02-27T03:32:18.464Z,0.00
2023-02-27T03:33:18.158Z,0.00
2023-02-27T03:34:18.177Z,0.00
2023-02-27T03:35:18.144Z,0.00
2023-02-27T03:36:18.184Z,0.00
2023-02-27T03:37:18.112Z,0.00
2023-02-27T03:38:18.122Z,0.00
2023-02-27T03:39:18.240Z,0.00
2023-02-27T03:40:18.234Z,0.00
2023-02-27T03:41:18.070Z,0.00
2023-02-27T03:42:18.101Z,0.00
2023-02-27T03:43:18.053Z,0.00
2023-02-27T03:44:18.074Z,0.00
2023-02-27T03:45:18.128Z,0.00
2023-02-27T03:46:18.084Z,0.00
2023-02-27T03:47:18.023Z,0.00
2023-02-27T03:48:18.012Z,0.00
2023-02-27T03:49:17.980Z,0.00
2023-02-27T03:50:17.989Z,0.00
2023-02-27T03:51:17.961Z,0.00
2023-02-27T03:52:17.990Z,0.00
2023-02-27T03:53:17.940Z,0.00
2023-02-27T03:54:17.937Z,0.00
2023-02-27T03:55:17.934Z,0.00
2023-02-27T03:56:17.936Z,0.00
2023-02-27T03:57:17.919Z,0.00
2023-02-27T03:58:17.919Z,0.00
2023-02-27T03:59:17.874Z,0.00
2023-02-27T04:00:17.906Z,0.00
2023-02-27T04:01:17.867Z,0.00
2023-02-27T04:02:17.858Z,0.00
2023-02-27T04:03:17.846Z,0.00
2023-02-27T04:04:17.832Z,0.00
2023-02-27T04:05:17.802Z,0.00
2023-02-27T04:06:17.806Z,0.00
2023-02-27T04:07:17.765Z,0.00
2023-02-27T04:08:17.802Z,0.00
2023-02-27T04:09:17.812Z,0.00
2023-02-27T04:10:17.775Z,0.00
2023-02-27T04:11:17.745Z,0.00
2023-02-27T04:12:17.766Z,0.00
2023-02-27T04:13:17.716Z,0.00
2023-02-27T04:14:17.734Z,0.00
2023-02-27T04:15:17.694Z,0.00
2023-02-27T04:16:17.747Z,0.00
2023-02-27T04:17:17.666Z,0.00
2023-02-27T04:18:17.694Z,0.00
2023-02-27T04:19:17.680Z,0.00
2023-02-27T04:20:17.702Z,0.00
2023-02-27T04:21:17.638Z,0.00
2023-02-27T04:22:17.635Z,0.00
2023-02-27T04:23:17.621Z,0.00
2023-02-27T04:24:17.623Z,0.00
2023-02-27T04:25:17.595Z,0.00
2023-02-27T04:26:17.637Z,0.00
2023-02-27T04:27:17.563Z,0.00
2023-02-27T04:28:17.602Z,0.00
2023-02-27T04:29:17.555Z,0.00
2023-02-27T04:30:17.584Z,0.00
2023-02-27T04:31:17.637Z,0.00
2023-02-27T04:32:17.644Z,0.00
2023-02-27T04:33:17.511Z,0.00
2023-02-27T04:34:17.506Z,0.00
2023-02-27T04:35:17.476Z,0.00
2023-02-27T04:36:17.509Z,0.00
2023-02-27T04:37:17.476Z,0.00
2023-02-27T04:38:17.480Z,0.00
2023-02-27T04:39:17.460Z,0.00
2023-02-27T04:40:17.770Z,0.00
2023-02-27T04:41:17.634Z,0.00
2023-02-27T04:42:17.450Z,0.00
2023-02-27T04:43:17.399Z,0.00
2023-02-27T04:44:17.399Z,0.00
2023-02-27T04:45:17.391Z,0.00
2023-02-27T04:46:17.421Z,0.00
2023-02-27T04:47:17.405Z,0.00
2023-02-27T04:48:17.475Z,0.00
2023-02-27T04:49:17.343Z,0.00
2023-02-27T04:50:17.364Z,0.00
2023-02-27T04:51:17.357Z,0.00
2023-02-27T04:52:17.349Z,0.00
2023-02-27T04:53:17.350Z,0.00
2023-02-27T04:54:17.311Z,0.00
2023-02-27T04:55:17.306Z,0.00
2023-02-27T04:56:17.367Z,0.00
2023-02-27T04:57:17.267Z,0.00
2023-02-27T04:58:17.272Z,0.00
2023-02-27T04:59:17.228Z,0.00
2023-02-27T05:00:17.297Z,0.00
2023-02-27T05:01:17.605Z,0.00
2023-02-27T05:02:17.323Z,0.00
2023-02-27T05:03:17.213Z,0.00
2023-02-27T05:04:17.202Z,0.00
2023-02-27T05:05:17.162Z,0.00
2023-02-27T05:06:17.174Z,0.00
2023-02-27T05:07:17.136Z,0.00
2023-02-27T05:08:17.332Z,0.00
2023-02-27T05:09:17.276Z,0.00
2023-02-27T05:10:17.155Z,0.00
2023-02-27T05:11:17.093Z,0.00
2023-02-27T05:12:17.093Z,0.00
2023-02-27T05:13:17.070Z,0.00
2023-02-27T05:14:17.090Z,0.00
2023-02-27T05:15:17.043Z,0.00
2023-02-27T05:16:17.068Z,0.00
2023-02-27T05:17:17.039Z,0.00
2023-02-27T05:18:17.122Z,0.00
2023-02-27T05:19:17.018Z,0.00
2023-02-27T05:20:17.033Z,0.00
2023-02-27T05:21:16.980Z,0.00
2023-02-27T05:22:16.979Z,0.00
2023-02-27T05:23:16.960Z,0.00
2023-02-27T05:24:16.976Z,0.00
2023-02-27T05:25:16.947Z,0.00
2023-02-27T05:26:16.964Z,0.00
2023-02-27T05:27:16.917Z,0.00
2023-02-27T05:28:16.930Z,0.00
2023-02-27T05:29:16.894Z,0.00
2023-02-27T05:30:16.918Z,0.00
2023-02-27T05:31:16.911Z,0.00
2023-02-27T05:32:17.037Z,0.00
2023-02-27T05:33:16.862Z,0.00
2023-02-27T05:34:16.863Z,0.00
2023-02-27T05:35:16.839Z,0.00
2023-02-27T05:36:16.836Z,0.00
2023-02-27T05:37:16.807Z,0.00
2023-02-27T05:38:16.826Z,0.00
2023-02-27T05:39:17.109Z,0.00
2023-02-27T05:40:16.821Z,0.00
2023-02-27T05:41:16.747Z,0.00
2023-02-27T05:42:16.790Z,0.00
2023-02-27T05:43:16.758Z,0.00
2023-02-27T05:44:16.761Z,0.00
2023-02-27T05:45:16.704Z,0.00
2023-02-27T05:46:16.744Z,0.00
2023-02-27T05:47:16.703Z,0.00
2023-02-27T05:48:19.356Z,0.00
2023-02-27T05:49:16.681Z,0.00
2023-02-27T05:50:16.691Z,0.00
2023-02-27T05:51:16.648Z,0.00
2023-02-27T05:52:16.671Z,0.00
2023-02-27T05:53:16.632Z,0.00
2023-02-27T05:54:16.637Z,0.00
2023-02-27T05:55:18.640Z,0.00
2023-02-27T05:56:16.641Z,0.00
2023-02-27T05:57:16.582Z,0.00
2023-02-27T05:58:16.751Z,0.00
2023-02-27T05:59:16.559Z,0.00
2023-02-27T06:00:16.620Z,0.00
2023-02-27T06:01:16.538Z,0.00
2023-02-27T06:02:16.669Z,0.00
2023-02-27T06:03:16.618Z,0.00
2023-02-27T06:04:16.590Z,0.00
2023-02-27T06:05:16.495Z,0.00
2023-02-27T06:06:16.521Z,0.00
2023-02-27T06:07:16.628Z,0.00
2023-02-27T06:08:16.520Z,0.00
2023-02-27T06:09:16.622Z,0.00
2023-02-27T06:10:16.521Z,0.00
2023-02-27T06:11:16.675Z,0.00
2023-02-27T06:12:16.647Z,0.00
2023-02-27T06:13:16.639Z,0.00
2023-02-27T06:14:16.549Z,0.00
2023-02-27T06:15:16.550Z,0.00
2023-02-27T06:16:16.584Z,0.00
2023-02-27T06:17:16.368Z,0.00
2023-02-27T06:18:16.574Z,0.00
2023-02-27T06:19:16.366Z,0.00
2023-02-27T06:20:16.590Z,0.00
2023-02-27T06:21:16.328Z,0.00
2023-02-27T06:22:16.348Z,5.62
2023-02-27T06:23:16.315Z,5.62
2023-02-27T06:24:16.309Z,5.62
2023-02-27T06:25:16.300Z,5.62
2023-02-27T06:26:16.288Z,5.62
2023-02-27T06:27:16.287Z,5.62
2023-02-27T06:28:16.261Z,5.62
2023-02-27T06:29:16.248Z,5.62
2023-02-27T06:30:16.231Z,5.62
2023-02-27T06:31:16.345Z,5.62
2023-02-27T06:32:16.263Z,5.62
2023-02-27T06:33:16.209Z,11.25
2023-02-27T06:34:16.180Z,11.25
2023-02-27T06:35:16.200Z,11.25
2023-02-27T06:36:16.204Z,11.25
2023-02-27T06:37:16.186Z,11.25
2023-02-27T06:38:16.141Z,11.25
2023-02-27T06:39:16.139Z,11.25
2023-02-27T06:40:16.139Z,11.25
2023-02-27T06:41:16.139Z,11.25
2023-02-27T06:42:16.235Z,11.25
2023-02-27T06:43:16.239Z,16.88
2023-02-27T06:44:17.980Z,16.88
2023-02-27T06:45:16.098Z,16.88
2023-02-27T06:46:16.110Z,16.88
2023-02-27T06:47:16.057Z,16.88
2023-02-27T06:48:16.290Z,16.88
2023-02-27T06:49:16.038Z,16.88
2023-02-27T06:50:16.179Z,16.88
2023-02-27T06:51:16.286Z,16.88
2023-02-27T06:52:16.189Z,16.88
2023-02-27T06:53:16.216Z,16.88
2023-02-27T06:54:16.102Z,22.50
2023-02-27T06:55:16.017Z,22.50
2023-02-27T06:56:16.203Z,22.50
2023-02-27T06:57:15.975Z,22.50
2023-02-27T06:58:16.103Z,22.50
2023-02-27T06:59:15.972Z,22.50
2023-02-27T07:00:16.059Z,22.50
2023-02-27T07:01:16.078Z,22.50
2023-02-27T07:02:15.867Z,22.50
2023-02-27T07:03:15.902Z,22.50
2023-02-27T07:04:15.904Z,28.12
2023-02-27T07:05:15.984Z,28.12
2023-02-27T07:06:15.865Z,28.12
2023-02-27T07:07:35.892Z,28.12
2023-02-27T07:08:16.906Z,28.12
2023-02-27T07:09:15.803Z,33.75
2023-02-27T07:10:15.817Z,33.75
2023-02-27T07:11:16.238Z,33.75
2023-02-27T07:12:15.813Z,33.75
2023-02-27T07:13:17.915Z,39.38
2023-02-27T07:14:15.743Z,39.38
2023-02-27T07:15:15.771Z,39.38
2023-02-27T07:16:15.755Z,39.38
2023-02-27T07:17:15.768Z,39.38
2023-02-27T07:18:15.708Z,39.38
2023-02-27T07:19:15.720Z,39.38
2023-02-27T07:20:15.761Z,39.38
2023-02-27T07:21:15.708Z,39.38
2023-02-27T07:22:15.686Z,45.00
2023-02-27T07:23:15.691Z,45.00
2023-02-27T07:24:15.901Z,45.00
2023-02-27T07:25:15.820Z,45.00
2023-02-27T07:26:15.623Z,45.00
2023-02-27T07:27:15.624Z,45.00
2023-02-27T07:28:15.620Z,45.00
2023-02-27T07:29:15.590Z,45.00
2023-02-27T07:30:15.859Z,45.00
2023-02-27T07:31:16.235Z,45.00
2023-02-27T07:32:15.803Z,45.00
2023-02-27T07:33:16.279Z,50.62
2023-02-27T07:34:15.538Z,50.62
2023-02-27T07:35:15.537Z,50.62
2023-02-27T07:36:15.509Z,50.62
2023-02-27T07:37:15.568Z,50.62
2023-02-27T07:38:15.483Z,50.62
2023-02-27T07:39:15.499Z,50.62
2023-02-27T07:40:15.473Z,50.62
2023-02-27T07:41:29.665Z,50.62
2023-02-27T07:42:16.453Z,50.62
2023-02-27T07:43:15.732Z,50.62
2023-02-27T07:44:15.619Z,50.62
2023-02-27T07:45:15.447Z,50.62
2023-02-27T07:46:15.390Z,50.62
2023-02-27T07:47:15.401Z,56.25
2023-02-27T07:48:15.372Z,56.25
2023-02-27T07:49:15.383Z,56.25
2023-02-27T07:50:15.385Z,56.25
2023-02-27T07:51:15.483Z,56.25
2023-02-27T07:52:15.353Z,56.25
2023-02-27T07:53:15.332Z,56.25
2023-02-27T07:54:15.318Z,56.25
2023-02-27T07:55:15.313Z,56.25
2023-02-27T07:56:15.279Z,56.25
2023-02-27T07:57:15.326Z,56.25
2023-02-27T07:58:22.333Z,56.25
2023-02-27T07:59:15.262Z,56.25
2023-02-27T08:00:15.540Z,56.25
2023-02-27T08:01:15.330Z,56.25
2023-02-27T08:02:15.223Z,56.25
2023-02-27T08:03:15.261Z,61.88
2023-02-27T08:04:15.264Z,61.88
2023-02-27T08:05:15.575Z,61.88
2023-02-27T08:06:15.207Z,61.88
2023-02-27T08:07:15.247Z,61.88
2023-02-27T08:08:15.140Z,61.88
2023-02-27T08:09:15.170Z,61.88
2023-02-27T08:10:16.581Z,61.88
2023-02-27T08:11:15.158Z,61.88
2023-02-27T08:12:15.248Z,61.88
2023-02-27T08:13:16.734Z,61.88
2023-02-27T08:14:15.078Z,61.88
2023-02-27T08:15:15.109Z,61.88
2023-02-27T08:16:15.083Z,61.88
2023-02-27T08:17:15.060Z,61.88
2023-02-27T08:18:15.072Z,61.88
2023-02-27T08:19:15.082Z,61.88
2023-02-27T08:20:15.066Z,61.88
2023-02-27T08:21:15.693Z,61.88
2023-02-27T08:22:14.998Z,61.88
2023-02-27T08:23:15.061Z,67.50
2023-02-27T08:24:14.976Z,67.50
2023-02-27T08:25:16.469Z,67.50
2023-02-27T08:26:15.203Z,67.50
2023-02-27T08:27:14.968Z,67.50
2023-02-27T08:28:14.943Z,67.50
2023-02-27T08:29:16.928Z,67.50
2023-02-27T08:30:14.907Z,67.50
2023-02-27T08:31:14.959Z,67.50
2023-02-27T08:32:14.919Z,67.50
2023-02-27T08:33:14.910Z,67.50
2023-02-27T08:34:15.028Z,67.50
2023-02-27T08:35:14.899Z,67.50
2023-02-27T08:36:14.956Z,67.50
2023-02-27T08:37:14.917Z,67.50
2023-02-27T08:38:14.816Z,67.50
2023-02-27T08:39:14.812Z,67.50
2023-02-27T08:40:14.842Z,67.50
2023-02-27T08:41:14.829Z,67.50
2023-02-27T08:42:14.825Z,67.50
2023-02-27T08:43:14.771Z,67.50
2023-02-27T08:44:14.752Z,67.50
2023-02-27T08:45:14.766Z,67.50
2023-02-27T08:46:14.963Z,67.50
2023-02-27T08:47:14.730Z,67.50
2023-02-27T08:48:14.848Z,67.50
2023-02-27T08:49:14.789Z,67.50
2023-02-27T08:50:14.689Z,67.50
2023-02-27T08:51:14.702Z,73.12
2023-02-27T08:52:14.704Z,73.12
2023-02-27T08:53:14.897Z,73.12
2023-02-27T08:54:14.785Z,73.12
2023-02-27T08:55:14.656Z,73.12
2023-02-27T08:56:14.618Z,73.12
2023-02-27T08:57:14.620Z,73.12
2023-02-27T08:58:16.001Z,73.12
2023-02-27T08:59:14.608Z,73.12
2023-02-27T09:00:14.695Z,73.12
2023-02-27T09:01:14.634Z,73.12
2023-02-27T09:02:14.550Z,73.12
2023-02-27T09:03:14.584Z,73.12
2023-02-27T09:04:14.575Z,73.12
2023-02-27T09:05:14.564Z,73.12
2023-02-27T09:06:14.665Z,73.12
2023-02-27T09:07:14.679Z,73.12
2023-02-27T09:08:14.460Z,73.12
2023-02-27T09:09:14.508Z,73.12
2023-02-27T09:10:14.455Z,73.12
2023-02-27T09:11:14.462Z,73.12
2023-02-27T09:12:14.445Z,73.12
2023-02-27T09:13:14.507Z,73.12
2023-02-27T09:14:14.720Z,73.12
2023-02-27T09:15:14.408Z,73.12
2023-02-27T09:16:14.423Z,73.12
2023-02-27T09:17:14.393Z,73.12
2023-02-27T09:18:14.380Z,73.12
2023-02-27T09:19:14.398Z,73.12
2023-02-27T09:20:14.337Z,73.12
2023-02-27T09:21:14.439Z,73.12
2023-02-27T09:22:14.335Z,73.12
2023-02-27T09:23:14.332Z,73.12
2023-02-27T09:24:20.097Z,73.12
2023-02-27T09:25:15.329Z,73.12
2023-02-27T09:26:14.532Z,73.12
2023-02-27T09:27:14.371Z,73.12
2023-02-27T09:28:14.292Z,73.12
2023-02-27T09:29:14.278Z,73.12
2023-02-27T09:30:14.290Z,73.12
2023-02-27T09:31:14.413Z,73.12
2023-02-27T09:32:14.325Z,73.12
2023-02-27T09:33:14.250Z,73.12
2023-02-27T09:34:14.180Z,73.12
2023-02-27T09:35:14.248Z,73.12
2023-02-27T09:36:14.180Z,73.12
2023-02-27T09:37:14.204Z,73.12
2023-02-27T09:38:14.160Z,73.12
2023-02-27T09:39:14.171Z,73.12
2023-02-27T09:40:14.104Z,73.12
2023-02-27T09:41:14.116Z,73.12
2023-02-27T09:42:14.109Z,73.12
2023-02-27T09:43:14.225Z,73.12
2023-02-27T09:44:14.084Z,73.12
2023-02-27T09:45:14.080Z,73.12
2023-02-27T09:46:14.103Z,73.12
2023-02-27T09:47:14.335Z,73.12
2023-02-27T09:48:14.046Z,73.12
2023-02-27T09:49:14.063Z,73.12
2023-02-27T09:50:14.021Z,73.12
2023-02-27T09:51:14.004Z,73.12
2023-02-27T09:52:13.972Z,73.12
2023-02-27T09:53:14.005Z,73.12
2023-02-27T09:54:14.383Z,73.12
2023-02-27T09:55:14.084Z,73.12
2023-02-27T09:56:13.934Z,73.12
2023-02-27T09:57:13.943Z,73.12
2023-02-27T09:58:13.906Z,73.12
2023-02-27T09:59:14.003Z,73.12
2023-02-27T10:00:14.642Z,73.12
2023-02-27T10:01:14.032Z,73.12
2023-02-27T10:02:13.941Z,73.12
2023-02-27T10:03:14.244Z,73.12
2023-02-27T10:04:13.866Z,73.12
2023-02-27T10:05:14.366Z,73.12
2023-02-27T10:06:14.055Z,73.12
2023-02-27T10:07:14.380Z,73.12
2023-02-27T10:08:13.812Z,73.12
2023-02-27T10:09:14.199Z,73.12
2023-02-27T10:10:14.400Z,73.12
2023-02-27T10:11:13.798Z,73.12
2023-02-27T10:12:13.765Z,73.12
2023-02-27T10:13:14.085Z,73.12
2023-02-27T10:14:13.745Z,73.12
2023-02-27T10:15:13.751Z,73.12
2023-02-27T10:16:13.820Z,73.12
2023-02-27T10:17:13.716Z,73.12
2023-02-27T10:18:26.585Z,73.12
2023-02-27T10:19:14.712Z,73.12
2023-02-27T10:20:13.668Z,73.12
2023-02-27T10:21:13.685Z,73.12
2023-02-27T10:22:13.772Z,73.12
2023-02-27T10:23:13.642Z,73.12
2023-02-27T10:24:13.785Z,73.12
2023-02-27T10:25:29.665Z,73.12
2023-02-27T10:26:14.595Z,73.12
2023-02-27T10:27:13.708Z,73.12
2023-02-27T10:28:13.725Z,73.12
2023-02-27T10:29:13.723Z,78.75
2023-02-27T10:30:20.250Z,78.75
2023-02-27T10:31:14.606Z,73.12
2023-02-27T10:32:13.598Z,78.75
2023-02-27T10:33:13.748Z,78.75
2023-02-27T10:34:13.505Z,78.75
2023-02-27T10:35:13.654Z,78.75
2023-02-27T10:36:23.595Z,78.75
2023-02-27T10:37:14.507Z,78.75
2023-02-27T10:38:13.500Z,78.75
2023-02-27T10:39:13.471Z,78.75
2023-02-27T10:40:13.494Z,78.75
2023-02-27T10:41:13.893Z,78.75
2023-02-27T10:42:13.432Z,78.75
2023-02-27T10:43:13.410Z,78.75
2023-02-27T10:44:13.472Z,78.75
2023-02-27T10:45:13.373Z,78.75
2023-02-27T10:46:13.415Z,78.75
2023-02-27T10:47:13.373Z,78.75
2023-02-27T10:48:14.193Z,78.75
2023-02-27T10:49:13.740Z,78.75
2023-02-27T10:50:13.351Z,78.75
2023-02-27T10:51:13.372Z,78.75
2023-02-27T10:52:13.330Z,78.75
2023-02-27T10:53:13.350Z,78.75
2023-02-27T10:54:13.298Z,78.75
2023-02-27T10:55:13.468Z,78.75
2023-02-27T10:56:13.502Z,78.75
2023-02-27T10:57:13.329Z,78.75
2023-02-27T10:58:13.252Z,78.75
2023-02-27T10:59:13.232Z,78.75
2023-02-27T11:00:13.516Z,78.75
2023-02-27T11:01:13.553Z,78.75
2023-02-27T11:02:13.206Z,78.75
2023-02-27T11:03:13.177Z,78.75
2023-02-27T11:04:13.208Z,78.75
2023-02-27T11:05:13.259Z,78.75
2023-02-27T11:06:13.294Z,78.75
2023-02-27T11:07:13.146Z,78.75
2023-02-27T11:08:13.306Z,78.75
2023-02-27T11:09:13.185Z,78.75
2023-02-27T11:10:13.298Z,78.75
2023-02-27T11:11:13.190Z,78.75
2023-02-27T11:12:13.126Z,78.75
2023-02-27T11:13:13.075Z,78.75
2023-02-27T11:14:13.082Z,78.75
2023-02-27T11:15:13.054Z,78.75
2023-02-27T11:16:13.068Z,78.75
2023-02-27T11:17:13.414Z,78.75
2023-02-27T11:18:13.343Z,78.75
2023-02-27T11:19:14.498Z,78.75
2023-02-27T11:20:13.014Z,78.75
2023-02-27T11:21:12.987Z,78.75
2023-02-27T11:22:12.999Z,78.75
2023-02-27T11:23:12.967Z,78.75
2023-02-27T11:24:12.976Z,78.75
2023-02-27T11:25:13.407Z,78.75
2023-02-27T11:26:12.966Z,78.75
2023-02-27T11:27:12.906Z,78.75
2023-02-27T11:28:13.066Z,78.75
2023-02-27T11:29:13.408Z,78.75
2023-02-27T11:30:13.019Z,78.75
2023-02-27T11:31:12.903Z,78.75
2023-02-27T11:32:12.988Z,78.75
2023-02-27T11:33:13.220Z,78.75
2023-02-27T11:34:12.875Z,78.75
2023-02-27T11:35:12.892Z,78.75
2023-02-27T11:36:12.917Z,78.75
2023-02-27T11:37:13.382Z,78.75
2023-02-27T11:38:13.059Z,78.75
2023-02-27T11:39:12.807Z,78.75
2023-02-27T11:40:12.851Z,78.75
2023-02-27T11:41:12.779Z,78.75
2023-02-27T11:42:12.802Z,78.75
2023-02-27T11:43:12.817Z,78.75
2023-02-27T11:44:12.799Z,78.75
2023-02-27T11:45:12.724Z,78.75
2023-02-27T11:46:46.194Z,78.75
2023-02-27T11:47:13.721Z,78.75
2023-02-27T11:48:14.170Z,78.75
2023-02-27T11:49:12.829Z,78.75
2023-02-27T11:50:13.092Z,84.38
2023-02-27T11:51:12.864Z,90.00
2023-02-27T11:52:12.657Z,95.62
2023-02-27T11:53:12.648Z,90.00
2023-02-27T11:54:12.635Z,84.38
2023-02-27T11:55:12.776Z,78.75
2023-02-27T11:56:12.626Z,84.38
2023-02-27T11:57:12.913Z,95.62
2023-02-27T11:58:12.618Z,106.88
2023-02-27T11:59:12.564Z,106.88
2023-02-27T12:00:12.557Z,101.25
2023-02-27T12:01:12.729Z,90.00
2023-02-27T12:02:12.537Z,90.00
2023-02-27T12:03:12.628Z,90.00
2023-02-27T12:04:12.612Z,90.00
2023-02-27T12:05:12.511Z,95.62
2023-02-27T12:06:12.575Z,95.62
2023-02-27T12:07:12.554Z,90.00
2023-02-27T12:08:12.475Z,84.38
2023-02-27T12:09:12.771Z,78.75
2023-02-27T12:10:12.940Z,84.38
2023-02-27T12:11:14.646Z,95.62
2023-02-27T12:12:12.689Z,95.62
2023-02-27T12:13:12.395Z,84.38
2023-02-27T12:14:12.407Z,78.75
2023-02-27T12:15:12.390Z,78.75
2023-02-27T12:16:12.466Z,78.75
2023-02-27T12:17:12.407Z,78.75
2023-02-27T12:18:12.365Z,78.75
2023-02-27T12:19:12.487Z,78.75
2023-02-27T12:20:12.363Z,78.75
2023-02-27T12:21:12.286Z,78.75
2023-02-27T12:22:12.358Z,78.75
2023-02-27T12:23:12.317Z,78.75
2023-02-27T12:24:12.309Z,78.75
2023-02-27T12:25:12.243Z,78.75
2023-02-27T12:26:12.265Z,78.75
2023-02-27T12:27:12.218Z,78.75
2023-02-27T12:28:12.310Z,78.75
2023-02-27T12:29:12.217Z,78.75
2023-02-27T12:30:12.305Z,84.38
2023-02-27T12:31:12.246Z,84.38
2023-02-27T12:32:12.311Z,84.38
2023-02-27T12:33:12.162Z,84.38
2023-02-27T12:34:12.161Z,84.38
2023-02-27T12:35:12.213Z,78.75
2023-02-27T12:36:12.221Z,84.38
2023-02-27T12:37:12.124Z,84.38
2023-02-27T12:38:12.161Z,84.38
2023-02-27T12:39:12.149Z,84.38
2023-02-27T12:40:14.267Z,84.38
2023-02-27T12:41:12.085Z,84.38
2023-02-27T12:42:12.089Z,78.75
2023-02-27T12:43:12.058Z,78.75
2023-02-27T12:44:12.057Z,78.75
2023-02-27T12:45:12.081Z,78.75
2023-02-27T12:46:12.147Z,78.75
2023-02-27T12:47:12.046Z,78.75
2023-02-27T12:48:12.008Z,78.75
2023-02-27T12:49:11.981Z,78.75
2023-02-27T12:50:12.719Z,78.75
2023-02-27T12:51:12.648Z,78.75
2023-02-27T12:52:12.560Z,78.75
2023-02-27T12:53:12.568Z,78.75
2023-02-27T12:54:12.681Z,78.75
2023-02-27T12:55:12.137Z,78.75
2023-02-27T12:56:12.452Z,90.00
2023-02-27T12:57:11.897Z,106.88
2023-02-27T12:58:11.884Z,112.50
2023-02-27T12:59:12.226Z,101.25
2023-02-27T13:00:12.265Z,101.25
2023-02-27T13:01:11.981Z,106.88
2023-02-27T13:02:11.837Z,101.25
2023-02-27T13:03:11.815Z,95.62
2023-02-27T13:04:11.917Z,95.62
2023-02-27T13:05:12.406Z,95.62